createdAt,value
2023-12-20T00:02:18.692Z,4.67
2023-12-20T00:04:45.698Z,4.87
2023-12-20T00:07:12.695Z,4.80
2023-12-20T00:09:39.928Z,5.20
2023-12-20T00:12:07.001Z,4.73
2023-12-20T00:14:33.903Z,5.77
2023-12-20T00:17:00.754Z,6.07
2023-12-20T00:19:27.658Z,5.50
2023-12-20T00:21:54.624Z,5.20
2023-12-20T00:24:21.673Z,4.90
2023-12-20T00:26:48.516Z,6.23
2023-12-20T00:29:15.345Z,4.67
2023-12-20T00:31:42.325Z,3.80
2023-12-20T00:34:09.304Z,3.50
2023-12-20T00:36:36.808Z,3.00
2023-12-20T00:39:04.277Z,3.20
2023-12-20T00:41:31.132Z,3.30
2023-12-20T00:43:58.109Z,3.17
2023-12-20T00:46:25.069Z,3.20
2023-12-20T00:48:52.131Z,5.10
2023-12-20T00:51:19.265Z,3.30
2023-12-20T00:53:47.191Z,3.43
2023-12-20T00:56:14.124Z,3.10
2023-12-20T00:58:40.916Z,3.10
2023-12-20T01:01:07.806Z,3.03
2023-12-20T01:03:34.675Z,3.60
2023-12-20T01:06:01.612Z,3.13
2023-12-20T01:08:28.566Z,3.17
2023-12-20T01:10:55.369Z,3.30
2023-12-20T01:13:22.264Z,3.00
2023-12-20T01:15:49.254Z,3.27
2023-12-20T01:18:16.253Z,3.07
2023-12-20T01:20:43.780Z,2.73
2023-12-20T01:23:10.667Z,3.00
2023-12-20T01:25:37.694Z,2.83
2023-12-20T01:28:05.058Z,2.50
2023-12-20T01:30:31.980Z,2.90
2023-12-20T01:33:01.481Z,2.73
2023-12-20T01:35:28.755Z,2.80
2023-12-20T01:37:58.010Z,2.90
2023-12-20T01:40:24.930Z,3.10
2023-12-20T01:43:02.700Z,2.93
2023-12-20T01:45:29.762Z,2.80
2023-12-20T01:47:59.800Z,2.87
2023-12-20T01:50:28.594Z,4.27
2023-12-20T01:53:01.873Z,5.03
2023-12-20T01:55:34.040Z,3.93
2023-12-20T01:58:01.889Z,5.10
2023-12-20T02:00:31.329Z,5.23
2023-12-20T02:03:02.866Z,5.27
2023-12-20T02:05:32.451Z,4.70
2023-12-20T02:07:59.771Z,5.13
2023-12-20T02:10:27.495Z,5.80
2023-12-20T02:12:54.600Z,6.77
2023-12-20T02:15:22.105Z,5.17
2023-12-20T02:17:50.106Z,5.00
2023-12-20T02:20:17.390Z,5.70
2023-12-20T02:22:44.271Z,6.97
2023-12-20T02:25:11.170Z,5.73
2023-12-20T02:27:38.421Z,5.47
2023-12-20T02:30:06.475Z,6.90
2023-12-20T02:32:33.392Z,5.90
2023-12-20T02:35:00.369Z,6.00
2023-12-20T02:37:27.252Z,7.17
2023-12-20T02:39:54.106Z,5.93
2023-12-20T02:42:21.061Z,6.73
2023-12-20T02:44:47.881Z,7.93
2023-12-20T02:47:14.701Z,9.13
2023-12-20T02:49:41.620Z,6.93
2023-12-20T02:52:08.675Z,7.77
2023-12-20T02:54:35.531Z,7.00
2023-12-20T02:57:02.475Z,10.10
2023-12-20T02:59:29.544Z,7.27
2023-12-20T03:01:56.488Z,8.47
2023-12-20T03:04:23.429Z,7.03
2023-12-20T03:06:50.368Z,6.50
2023-12-20T03:09:17.320Z,8.60
2023-12-20T03:11:44.124Z,6.73
2023-12-20T03:14:10.940Z,7.60
2023-12-20T03:16:37.766Z,7.23
2023-12-20T03:19:04.947Z,8.33
2023-12-20T03:21:31.852Z,8.97
2023-12-20T03:23:58.786Z,7.70
2023-12-20T03:26:25.700Z,7.73
2023-12-20T03:28:53.121Z,8.93
2023-12-20T03:31:20.892Z,6.80
2023-12-20T03:33:47.970Z,7.17
2023-12-20T03:36:14.882Z,11.23
2023-12-20T03:38:41.819Z,8.43
2023-12-20T03:41:08.867Z,6.27
2023-12-20T03:43:35.765Z,8.10
2023-12-20T03:46:04.871Z,7.83
2023-12-20T03:48:34.629Z,7.23
2023-12-20T03:51:01.480Z,12.33
2023-12-20T03:53:28.621Z,10.77
2023-12-20T03:55:55.428Z,9.83
2023-12-20T03:58:22.249Z,8.90
2023-12-20T04:00:49.270Z,7.63
2023-12-20T04:03:16.185Z,7.40
2023-12-20T04:05:43.184Z,10.27
2023-12-20T04:08:11.114Z,8.60
2023-12-20T04:10:38.422Z,10.27
2023-12-20T04:13:05.905Z,8.60
2023-12-20T04:15:32.918Z,7.83
2023-12-20T04:17:59.817Z,8.20
2023-12-20T04:20:26.683Z,15.37
2023-12-20T04:22:53.626Z,6.77
2023-12-20T04:25:20.566Z,14.80
2023-12-20T04:27:47.755Z,12.33
2023-12-20T04:30:14.991Z,12.47
2023-12-20T04:32:41.870Z,20.67
2023-12-20T04:35:09.642Z,11.20
2023-12-20T04:37:36.582Z,12.57
2023-12-20T04:40:03.972Z,12.37
2023-12-20T04:42:30.793Z,10.77
2023-12-20T04:44:57.616Z,10.27
2023-12-20T04:47:24.483Z,11.00
2023-12-20T04:49:51.407Z,11.00
2023-12-20T04:52:18.481Z,8.63
2023-12-20T04:54:45.551Z,7.17
2023-12-20T04:57:12.417Z,13.20
2023-12-20T04:59:39.275Z,9.93
2023-12-20T05:02:06.147Z,10.13
2023-12-20T05:04:33.379Z,14.03
2023-12-20T05:07:00.336Z,10.40
2023-12-20T05:09:27.171Z,8.17
2023-12-20T05:11:53.989Z,11.27
2023-12-20T05:14:20.781Z,18.00
2023-12-20T05:16:47.659Z,13.30
2023-12-20T05:19:15.162Z,14.90
2023-12-20T05:21:42.044Z,10.07
2023-12-20T05:24:08.893Z,10.30
2023-12-20T05:26:35.754Z,10.77
2023-12-20T05:29:02.637Z,10.67
2023-12-20T05:31:29.660Z,8.73
2023-12-20T05:33:56.598Z,9.97
2023-12-20T05:36:23.500Z,10.20
2023-12-20T05:38:50.351Z,10.37
2023-12-20T05:41:17.165Z,11.37
2023-12-20T05:43:44.044Z,13.93
2023-12-20T05:46:14.011Z,9.53
2023-12-20T05:48:41.033Z,7.40
2023-12-20T05:51:08.168Z,14.50
2023-12-20T05:53:35.018Z,13.60
2023-12-20T05:56:01.877Z,12.17
2023-12-20T05:58:28.870Z,14.80
2023-12-20T06:00:55.824Z,12.07
2023-12-20T06:03:22.710Z,11.53
2023-12-20T06:05:49.513Z,13.13
2023-12-20T06:08:16.381Z,14.63
2023-12-20T06:10:43.194Z,16.03
2023-12-20T06:13:10.021Z,16.63
2023-12-20T06:15:36.929Z,10.63
2023-12-20T06:18:04.427Z,8.77
2023-12-20T06:20:31.275Z,9.57
2023-12-20T06:22:58.216Z,14.90
2023-12-20T06:25:25.216Z,17.57
2023-12-20T06:27:52.168Z,8.70
2023-12-20T06:30:19.145Z,12.40
2023-12-20T06:32:47.958Z,13.67
2023-12-20T06:35:14.987Z,9.67
2023-12-20T06:37:44.124Z,10.03
2023-12-20T06:40:17.075Z,14.30
2023-12-20T06:42:53.647Z,13.10
2023-12-20T06:45:26.136Z,14.43
2023-12-20T06:47:53.049Z,13.23
2023-12-20T06:50:19.907Z,10.43
2023-12-20T06:52:46.714Z,12.73
2023-12-20T06:55:13.794Z,9.97
2023-12-20T06:57:40.638Z,8.77
2023-12-20T07:00:09.661Z,9.00
2023-12-20T07:02:36.560Z,12.90
2023-12-20T07:05:03.678Z,13.33
2023-12-20T07:07:30.573Z,12.20
2023-12-20T07:09:57.660Z,13.80
2023-12-20T07:12:24.918Z,16.10
2023-12-20T07:14:51.756Z,14.00
2023-12-20T07:17:18.618Z,14.93
2023-12-20T07:19:45.545Z,12.03
2023-12-20T07:22:12.508Z,12.67
2023-12-20T07:24:39.381Z,12.10
2023-12-20T07:27:06.216Z,16.17
2023-12-20T07:29:33.310Z,16.20
2023-12-20T07:32:00.165Z,14.33
2023-12-20T07:34:27.160Z,14.07
2023-12-20T07:36:54.278Z,18.10
2023-12-20T07:39:21.135Z,17.80
2023-12-20T07:41:48.044Z,21.80
2023-12-20T07:44:16.666Z,17.73
2023-12-20T07:46:43.744Z,21.73
2023-12-20T07:49:11.368Z,15.77
2023-12-20T07:51:38.271Z,13.90
2023-12-20T07:54:06.280Z,11.10
2023-12-20T07:56:33.244Z,11.77
2023-12-20T07:59:01.207Z,16.07
2023-12-20T08:01:28.320Z,14.83
2023-12-20T08:03:55.330Z,15.90
2023-12-20T08:06:22.874Z,13.07
2023-12-20T08:08:55.785Z,17.20
2023-12-20T08:11:29.715Z,15.27
2023-12-20T08:13:56.552Z,13.67
2023-12-20T08:16:23.378Z,20.27
2023-12-20T08:18:51.442Z,14.40
2023-12-20T08:21:20.794Z,14.73
2023-12-20T08:23:48.739Z,16.53
2023-12-20T08:26:21.264Z,12.90
2023-12-20T08:28:48.434Z,19.43
2023-12-20T08:31:17.713Z,12.00
2023-12-20T08:33:49.646Z,12.47
2023-12-20T08:36:18.826Z,14.70
2023-12-20T08:38:45.676Z,11.83
2023-12-20T08:41:12.555Z,12.03
2023-12-20T08:43:41.167Z,10.70
2023-12-20T08:46:10.714Z,10.57
2023-12-20T08:48:38.452Z,20.40
2023-12-20T08:51:08.305Z,10.27
2023-12-20T08:53:35.206Z,9.73
2023-12-20T08:56:02.677Z,12.97
2023-12-20T08:58:30.279Z,9.83
2023-12-20T09:00:58.765Z,14.30
2023-12-20T09:03:25.897Z,12.23
2023-12-20T09:05:52.785Z,13.60
2023-12-20T09:08:19.679Z,14.97
2023-12-20T09:10:46.918Z,15.97
2023-12-20T09:13:14.239Z,11.97
2023-12-20T09:15:41.484Z,9.53
2023-12-20T09:18:08.497Z,12.07
2023-12-20T09:20:36.590Z,12.27
2023-12-20T09:23:04.009Z,14.30
2023-12-20T09:25:31.235Z,11.53
2023-12-20T09:27:58.389Z,15.40
2023-12-20T09:30:27.392Z,12.37
2023-12-20T09:32:56.246Z,11.03
2023-12-20T09:35:23.562Z,13.17
2023-12-20T09:37:51.099Z,15.03
2023-12-20T09:40:21.004Z,14.43
2023-12-20T09:43:04.315Z,13.83
2023-12-20T09:45:32.320Z,14.63
2023-12-20T09:48:00.068Z,10.90
2023-12-20T09:50:27.638Z,17.37
2023-12-20T09:52:59.448Z,14.40
2023-12-20T09:55:29.014Z,12.33
2023-12-20T09:57:56.134Z,10.27
2023-12-20T10:00:23.058Z,11.27
2023-12-20T10:03:01.727Z,11.73
2023-12-20T10:05:34.083Z,7.57
2023-12-20T10:08:02.969Z,13.57
2023-12-20T10:10:38.381Z,13.33
2023-12-20T10:13:14.614Z,14.53
2023-12-20T10:15:42.605Z,12.50
2023-12-20T10:18:10.752Z,15.47
2023-12-20T10:20:38.125Z,14.77
2023-12-20T10:23:05.201Z,9.60
2023-12-20T10:25:33.196Z,14.80
2023-12-20T10:28:11.568Z,11.00
2023-12-20T10:30:39.698Z,10.77
2023-12-20T10:33:10.938Z,10.20
2023-12-20T10:35:43.657Z,11.40
2023-12-20T10:38:14.750Z,11.70
2023-12-20T10:40:42.063Z,12.57
2023-12-20T10:43:10.671Z,9.47
2023-12-20T10:45:38.408Z,8.70
2023-12-20T10:48:06.538Z,14.90
2023-12-20T10:50:37.153Z,11.80
2023-12-20T10:53:04.638Z,10.00
2023-12-20T10:55:32.101Z,8.73
2023-12-20T10:58:06.846Z,11.70
2023-12-20T11:00:39.927Z,10.37
2023-12-20T11:03:10.766Z,9.77
2023-12-20T11:06:05.207Z,10.07
2023-12-20T11:08:45.994Z,12.03
2023-12-20T11:11:35.985Z,13.70
2023-12-20T11:14:13.962Z,13.40
2023-12-20T11:16:49.001Z,7.70
2023-12-20T11:19:21.769Z,10.27
2023-12-20T11:21:48.746Z,12.77
2023-12-20T11:24:17.737Z,7.60
2023-12-20T11:26:49.974Z,12.67
2023-12-20T11:29:39.070Z,12.77
2023-12-20T11:32:29.125Z,14.07
2023-12-20T11:35:09.865Z,11.50
2023-12-20T11:37:38.555Z,12.63
2023-12-20T11:40:15.876Z,12.83
2023-12-20T11:42:50.427Z,12.93
2023-12-20T11:45:22.970Z,9.30
2023-12-20T11:47:52.515Z,10.37
2023-12-20T11:50:20.427Z,12.10
2023-12-20T11:52:48.702Z,9.63
2023-12-20T11:55:16.241Z,13.60
2023-12-20T11:57:44.764Z,12.97
2023-12-20T12:00:14.177Z,14.83
2023-12-20T12:02:41.085Z,12.90
2023-12-20T12:05:08.769Z,12.10
2023-12-20T12:07:36.827Z,9.30
2023-12-20T12:10:04.802Z,13.27
2023-12-20T12:12:33.324Z,13.17
2023-12-20T12:15:00.685Z,12.70
2023-12-20T12:17:28.215Z,10.50
2023-12-20T12:20:07.788Z,17.13
2023-12-20T12:22:35.085Z,10.43
2023-12-20T12:25:13.330Z,14.33
2023-12-20T12:27:44.840Z,8.93
2023-12-20T12:30:14.354Z,13.57
2023-12-20T12:32:42.069Z,14.07
2023-12-20T12:35:10.621Z,9.60
2023-12-20T12:37:40.732Z,10.03
2023-12-20T12:40:18.555Z,7.37
2023-12-20T12:42:46.794Z,8.10
2023-12-20T12:45:13.772Z,6.67
2023-12-20T12:47:41.411Z,8.13
2023-12-20T12:50:09.470Z,9.20
2023-12-20T12:52:36.828Z,9.27
2023-12-20T12:55:05.811Z,9.07
2023-12-20T12:57:34.061Z,10.67
2023-12-20T13:00:00.985Z,6.03
2023-12-20T13:02:27.825Z,8.20
2023-12-20T13:04:54.758Z,10.40
2023-12-20T13:07:21.697Z,9.77
2023-12-20T13:09:49.070Z,11.17
2023-12-20T13:12:16.189Z,7.37
2023-12-20T13:14:43.023Z,11.33
2023-12-20T13:17:09.986Z,10.27
2023-12-20T13:19:37.450Z,12.47
2023-12-20T13:22:04.916Z,11.03
2023-12-20T13:24:31.768Z,8.97
2023-12-20T13:26:58.912Z,9.67
2023-12-20T13:29:28.243Z,11.53
2023-12-20T13:31:55.398Z,10.43
2023-12-20T13:34:22.530Z,8.17
2023-12-20T13:36:51.565Z,8.97
2023-12-20T13:39:19.023Z,10.93
2023-12-20T13:41:45.894Z,8.57
2023-12-20T13:44:13.492Z,8.57
2023-12-20T13:46:42.068Z,8.60
2023-12-20T13:49:13.384Z,13.00
2023-12-20T13:51:40.293Z,12.57
2023-12-20T13:54:07.334Z,9.30
2023-12-20T13:56:40.619Z,8.73
2023-12-20T13:59:14.898Z,8.83
2023-12-20T14:01:41.932Z,7.23
2023-12-20T14:04:08.860Z,7.67
2023-12-20T14:06:36.121Z,7.83
2023-12-20T14:09:04.190Z,8.67
2023-12-20T14:11:31.088Z,11.87
2023-12-20T14:13:59.127Z,7.73
2023-12-20T14:16:26.142Z,9.17
2023-12-20T14:18:53.169Z,7.30
2023-12-20T14:21:21.168Z,7.57
2023-12-20T14:23:49.080Z,8.20
2023-12-20T14:26:17.167Z,6.80
2023-12-20T14:28:44.811Z,7.63
2023-12-20T14:31:11.996Z,10.37
2023-12-20T14:33:40.020Z,8.73
2023-12-20T14:36:07.696Z,7.80
2023-12-20T14:38:34.862Z,13.03
2023-12-20T14:41:01.863Z,9.90
2023-12-20T14:43:28.850Z,11.67
2023-12-20T14:45:55.832Z,7.23
2023-12-20T14:48:22.691Z,7.83
2023-12-20T14:50:50.139Z,7.53
2023-12-20T14:53:19.473Z,11.53
2023-12-20T14:55:48.226Z,9.57
2023-12-20T14:58:15.926Z,8.20
2023-12-20T15:00:43.744Z,8.10
2023-12-20T15:03:10.586Z,9.63
2023-12-20T15:05:37.840Z,8.50
2023-12-20T15:08:05.303Z,10.40
2023-12-20T15:10:32.288Z,7.77
2023-12-20T15:12:59.207Z,11.63
2023-12-20T15:15:26.135Z,9.07
2023-12-20T15:17:52.944Z,13.87
2023-12-20T15:20:21.521Z,16.67
2023-12-20T15:22:48.392Z,14.07
2023-12-20T15:25:22.134Z,9.23
2023-12-20T15:27:55.152Z,12.43
2023-12-20T15:30:22.067Z,11.23
2023-12-20T15:32:48.986Z,11.47
2023-12-20T15:35:16.028Z,11.57
2023-12-20T15:37:43.565Z,12.00
2023-12-20T15:40:11.976Z,9.93
2023-12-20T15:42:41.212Z,10.80
2023-12-20T15:45:09.350Z,12.27
2023-12-20T15:47:39.546Z,10.50
2023-12-20T15:50:08.720Z,10.47
2023-12-20T15:52:37.938Z,12.43
2023-12-20T15:55:05.646Z,8.63
2023-12-20T15:57:42.310Z,8.73
2023-12-20T16:00:16.807Z,11.07
2023-12-20T16:02:43.638Z,9.97
2023-12-20T16:05:10.551Z,9.67
2023-12-20T16:07:37.471Z,11.10
2023-12-20T16:10:05.407Z,7.93
2023-12-20T16:12:32.340Z,7.87
2023-12-20T16:14:59.195Z,7.10
2023-12-20T16:17:26.058Z,8.27
2023-12-20T16:19:53.237Z,6.30
2023-12-20T16:22:20.181Z,8.70
2023-12-20T16:24:47.206Z,7.67
2023-12-20T16:27:14.132Z,8.30
2023-12-20T16:29:41.252Z,11.43
2023-12-20T16:32:08.321Z,9.83
2023-12-20T16:34:35.340Z,10.13
2023-12-20T16:37:02.644Z,9.13
2023-12-20T16:39:29.995Z,12.40
2023-12-20T16:41:56.852Z,11.07
2023-12-20T16:44:23.984Z,12.30
2023-12-20T16:46:50.810Z,10.17
2023-12-20T16:49:17.785Z,13.47
2023-12-20T16:51:45.061Z,13.63
2023-12-20T16:54:11.958Z,14.10
2023-12-20T16:56:38.858Z,13.73
2023-12-20T16:59:05.744Z,11.60
2023-12-20T17:01:32.855Z,13.43
2023-12-20T17:03:59.827Z,12.67
2023-12-20T17:06:27.660Z,12.90
2023-12-20T17:08:54.541Z,14.40
2023-12-20T17:11:24.140Z,15.77
2023-12-20T17:13:51.084Z,15.90
2023-12-20T17:16:17.959Z,15.37
2023-12-20T17:18:50.248Z,13.90
2023-12-20T17:21:17.962Z,12.70
2023-12-20T17:23:46.022Z,17.53
2023-12-20T17:26:15.948Z,14.73
2023-12-20T17:28:43.333Z,9.77
2023-12-20T17:31:10.708Z,19.13
2023-12-20T17:33:37.870Z,13.87
2023-12-20T17:36:06.200Z,11.63
2023-12-20T17:38:35.881Z,12.20
2023-12-20T17:41:03.338Z,16.67
2023-12-20T17:43:30.658Z,18.43
2023-12-20T17:45:57.994Z,15.53
2023-12-20T17:48:24.902Z,10.50
2023-12-20T17:50:52.211Z,12.13
2023-12-20T17:53:19.104Z,14.97
2023-12-20T17:55:45.882Z,13.90
2023-12-20T17:58:12.769Z,15.30
2023-12-20T18:00:39.646Z,13.63
2023-12-20T18:03:06.682Z,11.37
2023-12-20T18:05:33.670Z,12.70
2023-12-20T18:08:00.549Z,11.97
2023-12-20T18:10:27.742Z,11.10
2023-12-20T18:12:54.607Z,10.67
2023-12-20T18:15:21.442Z,13.03
2023-12-20T18:17:48.481Z,14.37
2023-12-20T18:20:16.356Z,16.57
2023-12-20T18:22:44.243Z,16.27
2023-12-20T18:25:11.258Z,14.37
2023-12-20T18:27:38.282Z,10.70
2023-12-20T18:30:15.556Z,14.17
2023-12-20T18:32:44.100Z,16.87
2023-12-20T18:35:11.326Z,15.93
2023-12-20T18:37:39.888Z,14.90
2023-12-20T18:40:08.266Z,11.10
2023-12-20T18:42:35.379Z,10.30
2023-12-20T18:45:04.471Z,12.27
2023-12-20T18:47:32.401Z,13.80
2023-12-20T18:50:03.471Z,11.17
2023-12-20T18:52:30.514Z,11.43
2023-12-20T18:54:57.535Z,12.23
2023-12-20T18:57:24.404Z,14.90
2023-12-20T18:59:51.244Z,13.80
2023-12-20T19:02:19.510Z,14.47
2023-12-20T19:04:46.490Z,13.43
2023-12-20T19:07:13.500Z,19.10
2023-12-20T19:09:40.383Z,18.03
2023-12-20T19:12:07.483Z,15.20
2023-12-20T19:14:34.961Z,12.33
2023-12-20T19:17:03.051Z,19.43
2023-12-20T19:19:29.982Z,16.70
2023-12-20T19:21:57.006Z,16.43
2023-12-20T19:24:24.330Z,12.10
2023-12-20T19:26:51.205Z,15.03
2023-12-20T19:29:18.045Z,16.73
2023-12-20T19:31:47.818Z,12.37
2023-12-20T19:34:14.873Z,17.83
2023-12-20T19:36:41.754Z,15.63
2023-12-20T19:39:08.594Z,14.40
2023-12-20T19:41:35.556Z,12.00
2023-12-20T19:44:03.704Z,13.80
2023-12-20T19:46:30.950Z,12.77
2023-12-20T19:48:57.869Z,18.87
2023-12-20T19:51:24.832Z,11.67
2023-12-20T19:53:52.642Z,12.73
2023-12-20T19:56:19.741Z,17.87
2023-12-20T19:58:46.574Z,12.63
2023-12-20T20:01:13.910Z,12.03
2023-12-20T20:03:41.239Z,10.27
2023-12-20T20:06:08.239Z,9.93
2023-12-20T20:08:35.137Z,8.93
2023-12-20T20:11:01.959Z,10.87
2023-12-20T20:13:28.824Z,7.47
2023-12-20T20:15:56.404Z,8.17
2023-12-20T20:18:23.327Z,7.73
2023-12-20T20:20:50.175Z,6.93
2023-12-20T20:23:17.037Z,8.27
2023-12-20T20:25:43.959Z,7.40
2023-12-20T20:28:10.942Z,7.40
2023-12-20T20:30:37.873Z,6.87
2023-12-20T20:33:04.848Z,6.10
2023-12-20T20:35:31.744Z,5.57
2023-12-20T20:37:58.558Z,6.17
2023-12-20T20:40:25.449Z,5.47
2023-12-20T20:42:52.286Z,6.10
2023-12-20T20:45:19.363Z,5.87
2023-12-20T20:47:46.641Z,7.53
2023-12-20T20:50:13.914Z,5.90
2023-12-20T20:52:40.883Z,4.97
2023-12-20T20:55:08.231Z,4.70
2023-12-20T20:57:35.570Z,6.73
2023-12-20T21:00:02.489Z,4.73
2023-12-20T21:02:30.137Z,4.20
2023-12-20T21:04:57.221Z,3.40
2023-12-20T21:07:26.534Z,3.67
2023-12-20T21:09:53.533Z,3.87
2023-12-20T21:12:20.434Z,4.27
2023-12-20T21:14:47.257Z,3.90
2023-12-20T21:17:14.588Z,3.30
2023-12-20T21:19:41.567Z,3.07
2023-12-20T21:22:08.554Z,3.50
2023-12-20T21:24:38.688Z,3.43
2023-12-20T21:27:05.627Z,3.90
2023-12-20T21:29:32.705Z,3.90
2023-12-20T21:31:59.541Z,5.97
2023-12-20T21:34:26.579Z,5.07
2023-12-20T21:36:54.416Z,5.20
2023-12-20T21:39:22.231Z,4.97
2023-12-20T21:41:50.597Z,4.27
2023-12-20T21:44:17.442Z,4.90
2023-12-20T21:46:45.109Z,3.93
2023-12-20T21:49:12.164Z,4.20
2023-12-20T21:51:39.136Z,3.93
2023-12-20T21:54:06.276Z,4.77
2023-12-20T21:56:34.400Z,5.60
2023-12-20T21:59:01.670Z,4.33
2023-12-20T22:01:28.705Z,5.77
2023-12-20T22:03:55.815Z,4.40
2023-12-20T22:06:22.672Z,4.37
2023-12-20T22:08:49.972Z,4.13
2023-12-20T22:11:16.850Z,3.97
2023-12-20T22:13:43.727Z,3.60
2023-12-20T22:16:11.624Z,3.90
2023-12-20T22:18:38.486Z,4.60
2023-12-20T22:21:05.627Z,3.90
2023-12-20T22:23:32.718Z,4.10
2023-12-20T22:25:59.750Z,3.87
2023-12-20T22:28:26.718Z,4.20
2023-12-20T22:30:53.910Z,3.77
2023-12-20T22:33:21.136Z,4.20
2023-12-20T22:35:50.127Z,4.43
2023-12-20T22:38:17.192Z,3.63
2023-12-20T22:40:44.130Z,4.10
2023-12-20T22:43:11.089Z,4.00
2023-12-20T22:45:41.305Z,4.50
2023-12-20T22:48:08.549Z,3.60
2023-12-20T22:50:35.408Z,4.17
2023-12-20T22:53:02.304Z,4.10
2023-12-20T22:55:29.252Z,3.67
2023-12-20T22:57:56.119Z,4.07
2023-12-20T23:00:25.579Z,4.90
2023-12-20T23:02:53.175Z,3.30
2023-12-20T23:05:21.216Z,3.30
2023-12-20T23:07:48.666Z,2.93
2023-12-20T23:10:16.491Z,3.33
2023-12-20T23:12:43.461Z,2.87
2023-12-20T23:15:10.525Z,3.03
2023-12-20T23:17:37.465Z,2.73
2023-12-20T23:20:04.759Z,2.70
2023-12-20T23:22:31.794Z,3.37
2023-12-20T23:24:58.765Z,3.00
2023-12-20T23:27:25.657Z,2.50
2023-12-20T23:29:54.582Z,2.40
2023-12-20T23:32:21.553Z,2.63
2023-12-20T23:35:00.674Z,2.47
2023-12-20T23:37:35.649Z,2.37
2023-12-20T23:40:02.667Z,2.57
2023-12-20T23:42:29.643Z,2.60
2023-12-20T23:44:56.543Z,2.60
2023-12-20T23:47:24.082Z,2.40
2023-12-20T23:49:50.971Z,3.20
2023-12-20T23:52:18.545Z,2.30
2023-12-20T23:54:45.490Z,2.13
2023-12-20T23:57:12.347Z,2.40
2023-12-20T23:59:39.978Z,2.20
